Time;durP1;ratioP1;P1;durP2;ratioP2;P2;SDS_P1;SDS_P2;PMS_P1;PMS_P2;Temp;Humidity;BMP_temperature;BMP_pressure;BME280_temperature;BME280_humidity;BME280_pressure;Samples;Min_cycle;Max_cycle;Signal;HPM_P1;HPM_P2
2022/01/27 00:01:59;;;;;;;73.10;40.07;;;;;;;-1.46;100.00;95700.06;5085907;28;20674;-73
2022/01/27 00:04:24;;;;;;;64.90;36.13;;;;;;;-1.57;100.00;95690.34;5053448;28;20281;-73
2022/01/27 00:07:10;;;;;;;61.73;33.90;;;;;;;-1.60;100.00;95691.06;5056799;28;20206;-73
2022/01/27 00:10:18;;;;;;;81.47;42.23;;;;;;;-1.76;100.00;95683.19;5062069;28;20615;-72
2022/01/27 00:13:09;;;;;;;68.13;37.33;;;;;;;-1.74;100.00;95680.13;5039976;28;20656;-72
2022/01/27 00:16:11;;;;;;;56.80;32.13;;;;;;;-1.68;100.00;95676.03;5052481;28;20273;-72
2022/01/27 00:18:57;;;;;;;43.60;26.70;;;;;;;-1.92;100.00;95669.16;5066857;28;20188;-72
2022/01/27 00:21:43;;;;;;;49.00;29.57;;;;;;;-1.97;100.00;95669.44;5076796;28;20650;-73
2022/01/27 00:24:31;;;;;;;50.67;27.67;;;;;;;-1.94;100.00;95676.78;5068789;28;20189;-72
2022/01/27 00:27:17;;;;;;;52.00;27.10;;;;;;;-1.91;100.00;95678.72;5061218;28;20193;-72
2022/01/27 00:30:05;;;;;;;45.63;27.90;;;;;;;-1.80;100.00;95676.22;5055371;28;20213;-72
2022/01/27 00:32:51;;;;;;;55.80;28.77;;;;;;;-1.99;100.00;95665.59;5074639;28;20224;-72
2022/01/27 00:35:37;;;;;;;51.23;28.13;;;;;;;-1.94;100.00;95678.69;5069538;28;20202;-72
2022/01/27 00:38:23;;;;;;;45.80;29.00;;;;;;;-1.90;100.00;95658.09;5057219;28;20289;-72
2022/01/27 00:41:09;;;;;;;50.27;27.57;;;;;;;-1.97;100.00;95661.41;5053666;28;20217;-72
2022/01/27 00:43:55;;;;;;;50.90;28.07;;;;;;;-2.01;100.00;95649.13;5061734;28;20202;-72
2022/01/27 00:46:41;;;;;;;46.87;27.23;;;;;;;-1.96;100.00;95649.59;5079276;28;20229;-72
2022/01/27 00:49:27;;;;;;;46.47;27.07;;;;;;;-2.19;100.00;95654.19;5043540;28;20893;-72
2022/01/27 00:52:20;;;;;;;50.80;28.30;;;;;;;-2.14;100.00;95677.19;5063113;28;20228;-72
2022/01/27 00:55:08;;;;;;;48.47;28.10;;;;;;;-2.31;100.00;95683.00;5060576;28;20194;-72
2022/01/27 01:00:54;;;;;;;45.87;26.70;;;;;;;-2.16;100.00;95684.81;5056407;28;20304;-72
2022/01/27 01:03:44;;;;;;;46.90;27.37;;;;;;;-2.22;100.00;95675.53;5054084;28;20199;-72
2022/01/27 01:15:13;;;;;;;43.73;26.17;;;;;;;-2.54;100.00;95673.06;5045213;28;20199;-72
2022/01/27 01:18:17;;;;;;;43.87;26.13;;;;;;;-2.37;100.00;95674.50;5042888;28;20218;-72
2022/01/27 01:21:27;;;;;;;45.33;25.30;;;;;;;-2.45;100.00;95670.16;5071031;28;20228;-71
2022/01/27 01:33:41;;;;;;;50.43;27.40;;;;;;;-2.51;100.00;95653.63;5046379;28;20248;-72
2022/01/27 01:36:36;;;;;;;52.03;27.17;;;;;;;-2.42;100.00;95647.28;5064873;28;20211;-72
2022/01/27 01:39:26;;;;;;;44.70;25.73;;;;;;;-2.40;100.00;95639.69;5079794;28;20280;-72
2022/01/27 01:42:12;;;;;;;48.17;26.13;;;;;;;-2.36;100.00;95633.28;5051887;28;20187;-72
2022/01/27 01:45:08;;;;;;;45.60;24.97;;;;;;;-2.36;100.00;95632.50;5045032;28;20198;-72
2022/01/27 01:47:54;;;;;;;48.40;25.97;;;;;;;-2.42;100.00;95629.34;5062342;28;20221;-72
2022/01/27 01:50:41;;;;;;;41.37;25.03;;;;;;;-2.53;100.00;95633.75;5076337;28;20297;-72
2022/01/27 01:53:27;;;;;;;45.70;27.23;;;;;;;-2.78;100.00;95649.31;5073239;28;20772;-72
2022/01/27 01:56:13;;;;;;;45.23;26.53;;;;;;;-2.74;100.00;95655.50;5056752;28;20225;-72
2022/01/27 01:58:58;;;;;;;40.70;25.13;;;;;;;-2.77;100.00;95658.13;5044549;28;20196;-72
2022/01/27 02:01:45;;;;;;;47.77;27.03;;;;;;;-2.84;100.00;95663.31;5047274;28;20656;-71
2022/01/27 02:04:31;;;;;;;44.10;25.90;;;;;;;-2.81;100.00;95646.56;5056959;28;20198;-72
2022/01/27 02:19:40;;;;;;;45.53;24.00;;;;;;;-3.23;100.00;95649.19;5055560;28;20296;-72
2022/01/27 02:22:26;;;;;;;41.07;23.93;;;;;;;-3.05;100.00;95652.22;5054537;28;20186;-72
2022/01/27 02:25:12;;;;;;;47.77;25.30;;;;;;;-2.94;100.00;95655.88;5047818;28;20194;-72
2022/01/27 02:27:59;;;;;;;48.03;26.03;;;;;;;-3.41;100.00;95653.38;5040528;28;20186;-72
2022/01/27 02:30:46;;;;;;;40.57;25.00;;;;;;;-3.13;100.00;95647.84;5059158;28;20210;-72
2022/01/27 02:33:33;;;;;;;45.87;24.97;;;;;;;-2.92;100.00;95645.63;5053289;28;20251;-72
2022/01/27 02:36:19;;;;;;;46.07;25.73;;;;;;;-2.96;100.00;95629.50;5068784;28;20217;-72
2022/01/27 02:39:07;;;;;;;41.43;25.13;;;;;;;-3.09;100.00;95627.34;5046304;28;20575;-72
2022/01/27 02:42:00;;;;;;;41.87;23.13;;;;;;;-3.17;100.00;95621.06;5045764;28;20657;-72
2022/01/27 02:44:46;;;;;;;45.63;25.17;;;;;;;-3.13;100.00;95619.25;5055723;28;20189;-72
2022/01/27 02:47:32;;;;;;;41.47;23.60;;;;;;;-3.68;100.00;95630.31;5075359;28;20626;-72
2022/01/27 02:50:18;;;;;;;42.17;23.87;;;;;;;-3.67;100.00;95621.19;5079711;28;20590;-72
2022/01/27 02:53:06;;;;;;;38.90;23.10;;;;;;;-3.55;100.00;95623.75;5073063;28;20193;-72
2022/01/27 02:55:52;;;;;;;40.13;23.80;;;;;;;-3.47;100.00;95619.31;5070160;28;20194;-72
2022/01/27 02:58:38;;;;;;;43.73;24.87;;;;;;;-3.41;100.00;95613.34;5059871;28;20201;-72
2022/01/27 03:01:24;;;;;;;41.80;25.03;;;;;;;-3.33;100.00;95619.59;5046632;28;20276;-72
2022/01/27 03:04:10;;;;;;;40.13;23.60;;;;;;;-3.46;100.00;95613.63;5071076;28;20205;-72
2022/01/27 03:06:57;;;;;;;41.47;24.50;;;;;;;-3.31;100.00;95626.13;5053687;28;20193;-72
2022/01/27 03:09:43;;;;;;;42.17;23.93;;;;;;;-3.45;100.00;95604.50;5049047;28;20699;-72
2022/01/27 03:12:30;;;;;;;40.83;24.27;;;;;;;-3.54;100.00;95611.94;5066183;28;20671;-72
2022/01/27 03:15:16;;;;;;;40.53;24.23;;;;;;;-3.38;100.00;95614.53;5078032;28;20200;-72
2022/01/27 03:18:02;;;;;;;41.30;25.03;;;;;;;-3.61;100.00;95609.09;5076546;28;20218;-72
2022/01/27 03:20:47;;;;;;;40.50;23.83;;;;;;;-3.52;100.00;95599.00;5062850;28;20220;-72
2022/01/27 03:23:33;;;;;;;41.17;24.17;;;;;;;-3.24;100.00;95596.91;5074577;28;20189;-71
2022/01/27 03:26:20;;;;;;;36.67;22.80;;;;;;;-3.56;100.00;95598.16;5070181;28;20265;-72
2022/01/27 03:29:06;;;;;;;36.57;23.10;;;;;;;-3.43;100.00;95596.13;5059179;28;20193;-72
2022/01/27 03:31:53;;;;;;;36.37;22.63;;;;;;;-3.35;100.00;95589.81;5034028;28;20197;-72
2022/01/27 03:34:40;;;;;;;44.90;24.57;;;;;;;-3.47;100.00;95593.38;5054722;28;20659;-72
2022/01/27 03:37:25;;;;;;;38.90;23.20;;;;;;;-3.29;100.00;95585.75;5039209;28;20213;-72
2022/01/27 03:40:12;;;;;;;36.07;22.77;;;;;;;-3.25;100.00;95597.25;5083071;28;20578;-72
2022/01/27 03:43:09;;;;;;;40.57;22.27;;;;;;;-3.05;100.00;95594.22;5085989;28;20664;-72
2022/01/27 03:45:55;;;;;;;33.50;21.53;;;;;;;-3.11;100.00;95595.66;5053284;28;20258;-72
2022/01/27 03:48:41;;;;;;;36.57;22.27;;;;;;;-3.19;100.00;95590.53;5065252;28;20257;-72
2022/01/27 03:51:27;;;;;;;38.37;21.90;;;;;;;-3.28;100.00;95584.59;5077189;28;20213;-72
2022/01/27 03:54:14;;;;;;;34.10;21.73;;;;;;;-3.40;100.00;95593.53;5054302;28;20201;-72
2022/01/27 03:57:00;;;;;;;33.80;21.30;;;;;;;-3.46;100.00;95592.25;5065781;28;20214;-72
2022/01/27 03:59:46;;;;;;;37.40;22.90;;;;;;;-3.48;100.00;95581.19;5068304;28;20212;-72
2022/01/27 04:02:35;;;;;;;37.77;24.37;;;;;;;-3.58;100.00;95578.28;5042216;28;20237;-72
2022/01/27 04:05:21;;;;;;;41.20;22.97;;;;;;;-3.56;100.00;95586.72;5052597;28;20197;-72
2022/01/27 04:08:09;;;;;;;39.27;23.20;;;;;;;-3.38;100.00;95593.19;5062214;28;20378;-72
2022/01/27 04:10:55;;;;;;;42.97;22.87;;;;;;;-3.47;100.00;95601.41;5057916;28;20229;-72
2022/01/27 04:13:41;;;;;;;40.17;23.47;;;;;;;-3.48;100.00;95596.41;5050675;28;20205;-72
2022/01/27 04:16:27;;;;;;;37.27;23.13;;;;;;;-3.44;100.00;95598.03;5050884;28;20207;-72
2022/01/27 04:19:13;;;;;;;40.87;23.57;;;;;;;-3.29;100.00;95594.50;5035677;28;20200;-72
2022/01/27 04:21:59;;;;;;;41.20;23.63;;;;;;;-3.36;100.00;95586.34;5049109;28;20281;-72
2022/01/27 04:24:44;;;;;;;36.00;21.93;;;;;;;-3.37;100.00;95578.69;5044759;28;20204;-72
2022/01/27 04:27:34;;;;;;;37.17;22.27;;;;;;;-3.48;100.00;95585.75;5048711;28;20198;-72
2022/01/27 04:30:22;;;;;;;38.97;23.10;;;;;;;-3.07;100.00;95561.75;5063350;28;20268;-72
2022/01/27 04:33:09;;;;;;;38.30;23.13;;;;;;;-3.26;100.00;95569.78;5053916;28;20229;-72
2022/01/27 04:35:58;;;;;;;42.43;24.93;;;;;;;-3.22;100.00;95567.16;5049683;28;20197;-72
2022/01/27 04:41:39;;;;;;;37.77;23.43;;;;;;;-2.98;100.00;95554.28;5079076;28;20245;-72
2022/01/27 04:47:36;;;;;;;35.57;21.63;;;;;;;-3.23;100.00;95561.06;5058159;28;20193;-72
2022/01/27 04:50:22;;;;;;;36.40;22.57;;;;;;;-3.18;100.00;95557.34;5064615;28;20278;-72
2022/01/27 04:53:15;;;;;;;36.50;22.93;;;;;;;-3.05;100.00;95554.16;5064329;28;20202;-72
2022/01/27 04:56:01;;;;;;;40.93;22.93;;;;;;;-3.18;100.00;95560.78;5062101;28;20465;-72
2022/01/27 04:58:51;;;;;;;40.17;23.90;;;;;;;-3.00;100.00;95556.53;5055252;28;20193;-72
2022/01/27 05:01:42;;;;;;;38.33;23.03;;;;;;;-2.85;100.00;95558.31;5065874;28;20204;-72
2022/01/27 05:04:35;;;;;;;44.73;23.33;;;;;;;-2.87;100.00;95555.22;5055217;28;20202;-72
2022/01/27 05:07:21;;;;;;;39.50;24.00;;;;;;;-3.09;100.00;95547.19;5054415;28;20224;-72
2022/01/27 05:10:13;;;;;;;37.97;22.10;;;;;;;-3.19;100.00;95547.78;5067710;28;20225;-71
2022/01/27 05:13:13;;;;;;;40.37;24.33;;;;;;;-3.11;100.00;95541.44;5064381;28;20565;-72
2022/01/27 05:16:00;;;;;;;40.40;24.17;;;;;;;-3.19;100.00;95537.09;5046010;28;20618;-72
2022/01/27 05:18:46;;;;;;;38.17;22.87;;;;;;;-3.03;100.00;95541.22;5045086;28;20201;-72
2022/01/27 05:21:35;;;;;;;38.80;22.83;;;;;;;-3.03;100.00;95556.47;5061723;28;20216;-72
2022/01/27 05:24:22;;;;;;;39.03;24.27;;;;;;;-2.85;100.00;95546.88;5048083;28;20197;-72
2022/01/27 05:27:08;;;;;;;40.40;24.73;;;;;;;-2.99;100.00;95543.94;5054142;28;20193;-73
2022/01/27 05:29:54;;;;;;;37.93;22.57;;;;;;;-3.13;100.00;95551.69;5060810;28;20221;-72
2022/01/27 05:32:40;;;;;;;37.43;22.40;;;;;;;-3.08;100.00;95538.84;5049599;28;20201;-72
2022/01/27 05:35:26;;;;;;;38.37;22.43;;;;;;;-3.31;100.00;95535.34;5065711;28;20205;-72
2022/01/27 05:38:16;;;;;;;38.93;23.33;;;;;;;-3.56;100.00;95528.00;5038571;28;20222;-72
2022/01/27 05:41:02;;;;;;;36.77;22.10;;;;;;;-3.66;100.00;95521.31;5071212;28;20300;-72
2022/01/27 05:43:47;;;;;;;36.87;22.20;;;;;;;-3.68;100.00;95517.47;5056859;28;20283;-72
2022/01/27 05:46:33;;;;;;;38.00;22.27;;;;;;;-3.86;100.00;95511.75;5052878;28;20214;-72
2022/01/27 05:49:19;;;;;;;36.83;22.40;;;;;;;-3.59;100.00;95512.66;5066377;28;20277;-72
2022/01/27 05:52:06;;;;;;;35.27;22.10;;;;;;;-3.48;100.00;95516.31;5063337;28;20198;-72
2022/01/27 05:54:52;;;;;;;35.80;20.77;;;;;;;-3.41;100.00;95517.22;5058575;28;20251;-72
2022/01/27 05:57:37;;;;;;;35.30;21.30;;;;;;;-3.47;100.00;95499.97;5050394;28;20292;-72
2022/01/27 06:00:24;;;;;;;34.37;21.43;;;;;;;-3.48;100.00;95503.75;5067169;28;20220;-72
2022/01/27 06:03:09;;;;;;;38.20;22.13;;;;;;;-3.55;100.00;95506.28;5069484;28;20208;-72
2022/01/27 06:05:55;;;;;;;32.50;19.80;;;;;;;-3.75;100.00;95505.50;5056661;28;20185;-72
2022/01/27 06:08:41;;;;;;;34.27;19.60;;;;;;;-3.71;100.00;95514.38;5057909;28;20611;-72
2022/01/27 06:11:27;;;;;;;35.67;20.83;;;;;;;-3.82;100.00;95524.03;5065491;28;20225;-72
2022/01/27 06:14:13;;;;;;;32.00;19.77;;;;;;;-3.62;100.00;95532.06;5071075;28;20189;-72
2022/01/27 06:16:59;;;;;;;32.83;20.53;;;;;;;-3.36;100.00;95519.59;5059607;28;20305;-72
2022/01/27 06:19:46;;;;;;;33.00;20.60;;;;;;;-3.44;100.00;95517.94;5045721;28;20255;-72
2022/01/27 06:22:32;;;;;;;33.63;20.63;;;;;;;-3.32;100.00;95515.13;5044154;28;20217;-72
2022/01/27 06:25:18;;;;;;;31.10;19.73;;;;;;;-3.23;100.00;95515.66;5054071;28;20208;-72
2022/01/27 06:28:04;;;;;;;40.73;22.03;;;;;;;-3.26;100.00;95513.72;5054502;28;20690;-72
2022/01/27 06:30:50;;;;;;;34.43;20.97;;;;;;;-3.34;100.00;95514.69;5049815;28;20224;-72
2022/01/27 06:33:36;;;;;;;31.00;19.30;;;;;;;-3.49;100.00;95507.53;5061621;28;20198;-72
2022/01/27 06:36:22;;;;;;;32.47;20.10;;;;;;;-3.37;100.00;95509.28;5052986;28;20650;-72
2022/01/27 06:39:08;;;;;;;34.47;19.67;;;;;;;-3.47;100.00;95510.63;5084352;28;20185;-72
2022/01/27 06:41:54;;;;;;;32.53;19.23;;;;;;;-3.62;100.00;95503.47;5064090;28;20639;-72
2022/01/27 06:44:40;;;;;;;28.33;19.23;;;;;;;-3.67;100.00;95506.44;5055197;28;20201;-72
2022/01/27 06:47:26;;;;;;;31.70;20.13;;;;;;;-3.52;100.00;95508.25;5058412;28;20246;-72
2022/01/27 06:50:12;;;;;;;34.17;19.63;;;;;;;-3.56;100.00;95506.66;5058638;28;20221;-72
2022/01/27 06:52:59;;;;;;;30.80;19.07;;;;;;;-3.78;100.00;95506.22;5053376;28;20197;-72
2022/01/27 06:55:45;;;;;;;31.43;18.50;;;;;;;-3.70;100.00;95515.16;5063955;28;20190;-72
2022/01/27 06:58:34;;;;;;;33.63;19.27;;;;;;;-3.79;100.00;95501.22;5061656;28;20190;-72
2022/01/27 07:01:20;;;;;;;33.67;19.27;;;;;;;-3.72;100.00;95502.13;5071950;28;20642;-72
2022/01/27 07:04:06;;;;;;;27.03;16.90;;;;;;;-3.81;100.00;95496.25;5082940;28;20218;-72
2022/01/27 07:06:52;;;;;;;27.17;16.80;;;;;;;-3.87;100.00;95494.22;5053243;28;20584;-72
2022/01/27 07:09:40;;;;;;;27.20;16.27;;;;;;;-3.78;100.00;95482.19;5063012;28;20232;-72
2022/01/27 07:12:26;;;;;;;30.97;18.20;;;;;;;-3.80;100.00;95487.13;5090082;28;20742;-72
2022/01/27 07:15:12;;;;;;;32.23;19.17;;;;;;;-3.73;100.00;95492.59;5069201;28;20244;-72
2022/01/27 07:17:58;;;;;;;27.30;17.07;;;;;;;-3.73;100.00;95487.25;5079706;28;20240;-72
2022/01/27 07:20:45;;;;;;;25.70;16.70;;;;;;;-3.50;100.00;95490.00;5067156;28;20208;-72
2022/01/27 07:23:31;;;;;;;30.60;17.90;;;;;;;-3.57;100.00;95489.06;5042743;28;20194;-72
2022/01/27 07:26:24;;;;;;;28.30;16.97;;;;;;;-3.44;100.00;95501.13;5061124;28;20284;-72
2022/01/27 07:29:10;;;;;;;24.20;15.33;;;;;;;-3.55;100.00;95495.63;5056434;28;20189;-72
2022/01/27 07:31:56;;;;;;;24.73;16.03;;;;;;;-3.36;100.00;95487.56;5047945;28;20220;-72
2022/01/27 07:34:42;;;;;;;25.17;16.53;;;;;;;-3.38;100.00;95497.06;5063682;28;20657;-72
2022/01/27 07:37:28;;;;;;;25.03;15.93;;;;;;;-3.16;100.00;95488.31;5046825;28;20219;-72
2022/01/27 07:40:14;;;;;;;21.50;14.20;;;;;;;-3.25;100.00;95507.22;5076425;28;20209;-72
2022/01/27 07:43:00;;;;;;;26.83;16.77;;;;;;;-3.38;100.00;95487.16;5052830;28;20668;-72
2022/01/27 07:45:46;;;;;;;23.27;14.20;;;;;;;-3.41;100.00;95493.19;5058824;28;20190;-72
2022/01/27 07:48:32;;;;;;;23.10;14.60;;;;;;;-3.22;100.00;95501.19;5077721;28;20239;-72
2022/01/27 07:51:18;;;;;;;22.53;13.63;;;;;;;-3.05;100.00;95494.59;5058485;28;20222;-72
2022/01/27 07:54:04;;;;;;;26.73;16.07;;;;;;;-3.04;100.00;95499.59;5022600;28;20265;-72
2022/01/27 07:56:50;;;;;;;24.77;15.47;;;;;;;-2.85;100.00;95482.75;5056969;28;20221;-73
2022/01/27 07:59:36;;;;;;;27.83;16.67;;;;;;;-2.65;100.00;95487.63;5051668;28;20296;-72
2022/01/27 08:02:22;;;;;;;31.27;17.90;;;;;;;-2.42;100.00;95498.31;5061505;28;20194;-72
2022/01/27 08:05:08;;;;;;;27.03;17.03;;;;;;;-2.43;100.00;95491.41;5074398;28;20194;-72
2022/01/27 08:07:54;;;;;;;28.37;16.57;;;;;;;-2.19;100.00;95495.59;5069967;28;20768;-73
2022/01/27 08:10:40;;;;;;;25.57;15.80;;;;;;;-1.86;100.00;95499.09;5064490;28;20703;-72
2022/01/27 08:13:26;;;;;;;24.33;14.63;;;;;;;-1.36;100.00;95503.13;5081356;28;20181;-73
2022/01/27 08:16:12;;;;;;;18.70;12.57;;;;;;;-1.01;100.00;95497.38;5057839;28;20202;-72
2022/01/27 08:18:58;;;;;;;19.97;12.73;;;;;;;-0.84;100.00;95494.84;5084332;28;20663;-73
2022/01/27 08:21:44;;;;;;;17.33;11.27;;;;;;;-0.33;100.00;95494.88;5071183;28;20197;-72
2022/01/27 08:24:30;;;;;;;16.43;11.37;;;;;;;-0.08;100.00;95485.84;5089913;28;20220;-72
2022/01/27 08:27:19;;;;;;;17.73;9.77;;;;;;;0.25;100.00;95486.78;5063860;28;20718;-72
2022/01/27 08:30:06;;;;;;;13.27;9.33;;;;;;;0.52;100.00;95496.13;5080926;28;20213;-72
2022/01/27 08:33:04;;;;;;;9.67;7.20;;;;;;;0.87;100.00;95491.63;5082804;28;20239;-72
2022/01/27 08:35:50;;;;;;;10.83;8.00;;;;;;;1.16;100.00;95476.31;5060758;28;20243;-72
2022/01/27 08:38:43;;;;;;;11.00;7.80;;;;;;;1.43;100.00;95487.47;5050598;28;20236;-72
2022/01/27 08:41:29;;;;;;;9.57;6.77;;;;;;;1.57;100.00;95485.56;5071900;28;20214;-72
2022/01/27 08:44:14;;;;;;;12.47;6.27;;;;;;;1.88;100.00;95478.63;5061757;28;20263;-72
2022/01/27 08:47:00;;;;;;;9.27;6.43;;;;;;;1.83;100.00;95468.25;5055227;28;20254;-72
2022/01/27 08:49:47;;;;;;;5.10;4.30;;;;;;;1.96;97.63;95472.84;5070043;28;20658;-72
2022/01/27 08:52:34;;;;;;;7.30;6.03;;;;;;;1.95;100.00;95468.59;5063965;28;20686;-72
2022/01/27 08:55:21;;;;;;;4.30;2.93;;;;;;;2.16;86.02;95473.16;5062344;28;20350;-72
2022/01/27 08:58:07;;;;;;;3.60;2.53;;;;;;;2.59;77.82;95482.66;5050327;28;20282;-72
2022/01/27 09:00:53;;;;;;;6.23;4.20;;;;;;;2.79;82.12;95482.94;5050682;28;20222;-72
2022/01/27 09:03:39;;;;;;;4.20;3.30;;;;;;;2.93;76.11;95477.50;5038165;28;20193;-72
2022/01/27 09:06:28;;;;;;;6.80;4.97;;;;;;;3.02;82.78;95475.13;5053649;28;20243;-72
2022/01/27 09:09:14;;;;;;;1.37;1.07;;;;;;;3.41;62.48;95462.16;5063469;28;20581;-72
2022/01/27 09:12:00;;;;;;;7.93;5.50;;;;;;;3.57;81.56;95463.19;5057114;28;20189;-72
2022/01/27 09:14:46;;;;;;;4.30;3.27;;;;;;;3.63;79.28;95466.22;5053781;28;20638;-72
2022/01/27 09:17:39;;;;;;;6.07;4.53;;;;;;;3.85;86.21;95486.50;5059884;28;20697;-72
2022/01/27 09:20:25;;;;;;;5.50;4.07;;;;;;;3.72;84.48;95474.63;5067859;28;20296;-72
2022/01/27 09:23:14;;;;;;;5.13;4.07;;;;;;;3.89;88.91;95473.69;5078402;28;20209;-72
2022/01/27 09:26:07;;;;;;;4.60;2.93;;;;;;;3.83;84.16;95475.31;5069724;28;20204;-72
2022/01/27 09:28:53;;;;;;;2.07;1.10;;;;;;;4.44;57.33;95468.91;5057030;28;20206;-72
2022/01/27 09:31:40;;;;;;;1.40;1.20;;;;;;;4.66;57.60;95461.28;5048562;28;20198;-72
2022/01/27 09:34:25;;;;;;;6.27;3.13;;;;;;;4.86;70.24;95467.59;5073085;28;20186;-72
2022/01/27 09:37:11;;;;;;;2.97;2.50;;;;;;;4.42;72.39;95476.63;5068536;28;20906;-72
2022/01/27 09:39:57;;;;;;;3.00;2.30;;;;;;;4.76;68.67;95484.75;5062918;28;20303;-72
2022/01/27 09:42:50;;;;;;;2.47;2.20;;;;;;;4.95;64.78;95462.47;5072129;28;20331;-72
2022/01/27 09:45:37;;;;;;;3.67;2.13;;;;;;;4.51;72.59;95460.69;5060761;28;20315;-72
2022/01/27 09:48:26;;;;;;;5.67;2.50;;;;;;;4.40;78.03;95461.97;5061197;28;20512;-72
2022/01/27 09:54:08;;;;;;;2.63;2.10;;;;;;;4.55;73.68;95461.41;5072573;28;20560;-73
2022/01/27 09:56:54;;;;;;;3.27;2.30;;;;;;;4.59;76.12;95459.44;5060569;28;20226;-72
2022/01/27 09:59:41;;;;;;;2.33;1.97;;;;;;;4.70;75.10;95464.72;5038711;28;20218;-73
2022/01/27 10:02:27;;;;;;;1.57;1.20;;;;;;;5.00;60.02;95451.19;5088820;28;20196;-73
2022/01/27 10:05:22;;;;;;;1.67;1.10;;;;;;;5.58;51.53;95447.22;5052227;28;20195;-73
2022/01/27 10:08:15;;;;;;;3.87;1.50;;;;;;;5.76;56.42;95443.06;5036821;28;20195;-72
2022/01/27 10:11:12;;;;;;;3.43;1.90;;;;;;;5.37;65.36;95450.25;5059072;28;20423;-73
2022/01/27 10:13:58;;;;;;;1.13;1.00;;;;;;;5.68;52.41;95451.72;5073322;28;20189;-72
2022/01/27 10:16:45;;;;;;;1.57;0.90;;;;;;;5.92;47.45;95448.59;5068639;28;20222;-73
2022/01/27 10:19:35;;;;;;;0.77;0.70;;;;;;;6.13;46.85;95459.09;5064038;28;20206;-72
2022/01/27 10:22:21;;;;;;;2.20;0.97;;;;;;;6.33;47.08;95440.13;5052033;28;20228;-72
2022/01/27 10:25:10;;;;;;;1.17;0.80;;;;;;;6.49;45.56;95442.91;5074183;28;20284;-72
2022/01/27 10:28:08;;;;;;;0.83;0.70;;;;;;;6.63;45.06;95431.03;5042882;28;20655;-72
2022/01/27 10:31:07;;;;;;;3.47;0.70;;;;;;;6.67;45.28;95427.03;5045878;28;20221;-73
2022/01/27 10:34:03;;;;;;;0.80;0.80;;;;;;;6.73;44.75;95421.88;5045365;28;20202;-73
2022/01/27 10:36:49;;;;;;;1.00;0.90;;;;;;;6.72;44.62;95423.84;5055776;28;20245;-72
2022/01/27 10:39:35;;;;;;;0.90;0.70;;;;;;;6.57;43.97;95419.88;5065745;28;20256;-72
2022/01/27 10:42:22;;;;;;;1.27;1.00;;;;;;;6.74;43.99;95420.69;5087096;28;20250;-71
2022/01/27 10:45:08;;;;;;;0.83;0.80;;;;;;;6.85;44.89;95411.16;5088465;28;20193;-72
2022/01/27 10:48:27;;;;;;;1.00;0.80;;;;;;;6.81;43.35;95402.31;5040667;28;20567;-72
2022/01/27 10:51:20;;;;;;;1.23;1.00;;;;;;;6.93;43.29;95403.63;5057148;28;20225;-71
2022/01/27 10:54:08;;;;;;;2.50;0.70;;;;;;;6.95;42.56;95393.09;5059976;28;20193;-72
2022/01/27 10:56:54;;;;;;;2.03;0.93;;;;;;;6.81;43.05;95402.31;5058402;28;20329;-72
2022/01/27 10:59:41;;;;;;;1.27;0.87;;;;;;;6.78;42.84;95386.88;5035345;28;20214;-72
2022/01/27 11:02:27;;;;;;;0.67;0.67;;;;;;;6.85;42.34;95389.44;5051816;28;20205;-72
2022/01/27 11:05:21;;;;;;;0.60;0.60;;;;;;;6.99;42.48;95394.53;5065790;28;20679;-72
2022/01/27 11:08:07;;;;;;;0.90;0.73;;;;;;;6.88;41.50;95396.75;5063014;28;20190;-73
2022/01/27 11:10:53;;;;;;;0.70;0.70;;;;;;;6.90;41.78;95396.31;5035849;28;20702;-73
2022/01/27 11:13:43;;;;;;;1.00;0.77;;;;;;;7.07;41.60;95397.88;5056160;28;20192;-73
2022/01/27 11:16:36;;;;;;;2.70;0.80;;;;;;;7.08;41.81;95388.53;5059301;28;20342;-73
2022/01/27 11:25:50;;;;;;;1.47;0.80;;;;;;;7.26;41.07;95365.19;5064804;28;20204;-73
2022/01/27 11:28:16;;;;;;;0.60;0.60;;;;;;;7.11;41.45;95371.41;5050156;28;20198;-73
2022/01/27 11:31:21;;;;;;;0.97;0.80;;;;;;;7.13;41.28;95375.22;5058530;28;20237;-73
2022/01/27 11:34:08;;;;;;;1.13;0.90;;;;;;;7.21;41.23;95379.28;5041359;28;20197;-72
2022/01/27 11:37:04;;;;;;;3.67;0.70;;;;;;;7.17;41.18;95375.91;5055938;28;21002;-73
2022/01/27 11:39:52;;;;;;;3.07;0.77;;;;;;;7.26;41.13;95378.78;5068070;28;20216;-73
2022/01/27 11:43:12;;;;;;;1.90;0.83;;;;;;;7.35;40.86;95365.38;5076871;28;20912;-72
2022/01/27 11:46:12;;;;;;;2.40;0.70;;;;;;;7.30;40.11;95365.91;5061553;28;20670;-72
2022/01/27 11:48:57;;;;;;;0.90;0.70;;;;;;;7.29;40.36;95350.78;5076195;28;20666;-72
2022/01/27 11:52:27;;;;;;;0.57;0.57;;;;;;;7.42;40.05;95345.44;5072655;28;20331;-72
2022/01/27 11:55:25;;;;;;;0.73;0.70;;;;;;;7.53;40.82;95337.78;5072921;28;20247;-72
2022/01/27 11:58:17;;;;;;;1.43;0.70;;;;;;;7.58;40.04;95331.06;5050107;28;20246;-72
2022/01/27 12:01:10;;;;;;;1.93;0.73;;;;;;;7.69;41.02;95332.31;5033360;28;20229;-72
2022/01/27 12:04:02;;;;;;;0.97;0.87;;;;;;;7.64;39.60;95324.69;5047338;28;20247;-72
2022/01/27 12:06:48;;;;;;;0.90;0.90;;;;;;;7.62;40.90;95331.75;5057761;28;20220;-73
2022/01/27 12:09:35;;;;;;;1.53;0.80;;;;;;;7.55;39.49;95329.94;5053602;28;20266;-73
2022/01/27 12:12:29;;;;;;;4.20;0.80;;;;;;;7.58;40.59;95328.34;5078284;28;20189;-73
2022/01/27 12:15:15;;;;;;;1.03;0.73;;;;;;;7.52;41.23;95328.09;5081969;28;20193;-73
2022/01/27 12:18:37;;;;;;;0.77;0.73;;;;;;;7.50;41.14;95322.31;5068431;28;20206;-73
2022/01/27 12:21:48;;;;;;;0.93;0.87;;;;;;;7.57;40.48;95334.97;5019106;28;20314;-73
2022/01/27 12:24:34;;;;;;;1.23;0.83;;;;;;;7.37;41.16;95326.91;5062043;28;20664;-72
2022/01/27 12:27:21;;;;;;;0.80;0.80;;;;;;;7.43;41.72;95332.63;5064145;28;20190;-72
2022/01/27 12:30:11;;;;;;;2.47;0.97;;;;;;;7.41;41.00;95324.88;5067050;28;20246;-72
2022/01/27 12:32:58;;;;;;;1.17;1.07;;;;;;;7.54;40.17;95338.53;5049347;28;20235;-72
2022/01/27 12:35:52;;;;;;;1.57;0.90;;;;;;;7.42;41.43;95325.63;5079139;28;20246;-72
2022/01/27 12:38:39;;;;;;;2.70;0.87;;;;;;;7.38;41.10;95321.06;5077875;28;20194;-72
2022/01/27 12:41:26;;;;;;;1.27;0.70;;;;;;;7.34;40.70;95317.69;5051944;28;20567;-72
2022/01/27 12:44:12;;;;;;;1.17;0.90;;;;;;;7.42;41.79;95322.91;5088242;28;20197;-73
2022/01/27 12:47:03;;;;;;;1.80;0.80;;;;;;;7.42;42.99;95318.25;5069372;28;20193;-72
2022/01/27 12:50:17;;;;;;;0.70;0.70;;;;;;;7.16;41.71;95311.16;5061576;28;20242;-72
2022/01/27 12:53:03;;;;;;;2.50;0.90;;;;;;;7.00;41.67;95303.00;5051362;28;20229;-72
2022/01/27 12:55:50;;;;;;;2.90;1.10;;;;;;;7.13;41.81;95301.88;5055017;28;20194;-72
2022/01/27 12:58:36;;;;;;;2.13;1.13;;;;;;;7.09;41.65;95306.63;5063931;28;20663;-72
2022/01/27 13:01:22;;;;;;;1.90;1.20;;;;;;;6.93;42.20;95301.22;5064624;28;20218;-72
2022/01/27 13:04:08;;;;;;;1.97;1.07;;;;;;;6.88;42.99;95312.56;5071313;28;20220;-72
2022/01/27 13:06:55;;;;;;;1.50;1.03;;;;;;;6.85;43.53;95318.84;5068732;28;20331;-72
2022/01/27 13:09:43;;;;;;;2.47;1.00;;;;;;;6.84;41.93;95314.59;5071851;28;20692;-72
2022/01/27 13:12:42;;;;;;;4.77;1.30;;;;;;;6.90;42.99;95306.72;5038059;28;20195;-72
2022/01/27 13:15:30;;;;;;;1.40;1.10;;;;;;;6.82;42.76;95308.06;5066409;28;20209;-72
2022/01/27 13:18:22;;;;;;;1.30;1.20;;;;;;;6.68;42.77;95314.59;5039207;28;20633;-72
2022/01/27 13:21:20;;;;;;;2.87;1.60;;;;;;;6.84;43.83;95311.13;5068710;28;20222;-72
2022/01/27 13:24:07;;;;;;;2.10;1.80;;;;;;;6.75;43.41;95298.16;5062862;28;20198;-72
2022/01/27 13:27:23;;;;;;;2.07;1.77;;;;;;;6.40;43.66;95309.03;5047285;28;20198;-72
2022/01/27 13:30:09;;;;;;;4.23;2.60;;;;;;;6.48;43.84;95294.13;5073450;28;20201;-72
2022/01/27 13:32:55;;;;;;;3.67;2.33;;;;;;;6.55;46.84;95308.28;5091336;28;20181;-72
2022/01/27 13:35:41;;;;;;;4.23;2.30;;;;;;;6.51;45.47;95302.19;5055502;28;20544;-72
2022/01/27 13:38:37;;;;;;;2.70;2.23;;;;;;;6.37;44.57;95313.31;5052807;28;20213;-72
2022/01/27 13:41:29;;;;;;;3.40;2.50;;;;;;;6.32;46.27;95311.09;5049476;28;20225;-72
2022/01/27 13:44:22;;;;;;;7.27;3.27;;;;;;;6.27;45.87;95310.81;5049419;28;20198;-72
2022/01/27 13:47:12;;;;;;;4.23;3.00;;;;;;;6.14;46.04;95302.59;5065841;28;20239;-73
2022/01/27 13:50:14;;;;;;;3.67;2.77;;;;;;;6.06;47.61;95298.47;5062461;28;20221;-72